Time;durP1;ratioP1;P1;durP2;ratioP2;P2;SDS_P1;SDS_P2;PMS_P1;PMS_P2;Temp;Humidity;BMP_temperature;BMP_pressure;BME280_temperature;BME280_humidity;BME280_pressure;Samples;Min_cycle;Max_cycle;Signal;HPM_P1;HPM_P2
2020/12/07 00:01:08;;;;;;;0.30;0.30;;;3.30;99.90;;;;;;5035221;28;20197;-63
2020/12/07 00:03:34;;;;;;;0.30;0.30;;;3.40;99.90;;;;;;5035510;28;20171;-64
2020/12/07 00:06:00;;;;;;;0.40;0.40;;;3.30;99.90;;;;;;5053225;28;20176;-63
2020/12/07 00:08:26;;;;;;;0.30;0.28;;;3.30;99.90;;;;;;5052442;28;20177;-64
2020/12/07 00:10:51;;;;;;;0.40;0.40;;;3.30;99.90;;;;;;5034687;28;20174;-64
2020/12/07 00:13:17;;;;;;;0.30;0.30;;;3.20;99.90;;;;;;5035179;28;20181;-63
2020/12/07 00:15:44;;;;;;;0.88;0.88;;;3.20;99.90;;;;;;5049687;28;20179;-63
2020/12/07 00:18:10;;;;;;;0.30;0.30;;;3.20;99.90;;;;;;5053755;28;20177;-64
2020/12/07 00:20:36;;;;;;;0.40;0.40;;;3.20;99.90;;;;;;5040963;28;20633;-63
2020/12/07 00:23:01;;;;;;;0.40;0.40;;;3.10;99.90;;;;;;5035060;28;21005;-62
2020/12/07 00:25:27;;;;;;;0.40;0.40;;;3.20;99.90;;;;;;5045911;28;20431;-64
2020/12/07 00:27:53;;;;;;;0.40;0.40;;;3.20;99.90;;;;;;5054964;28;20174;-62
2020/12/07 00:30:18;;;;;;;0.40;0.40;;;3.10;99.90;;;;;;5054199;28;20169;-63
2020/12/07 00:32:44;;;;;;;0.35;0.35;;;3.10;99.90;;;;;;5054861;28;20269;-63
2020/12/07 00:35:10;;;;;;;0.40;0.40;;;3.10;99.90;;;;;;5046377;28;20257;-62
2020/12/07 00:37:36;;;;;;;0.30;0.30;;;3.10;99.90;;;;;;5034816;28;20174;-63
2020/12/07 00:40:02;;;;;;;0.40;0.40;;;3.20;99.90;;;;;;5039668;28;20193;-64
2020/12/07 00:42:28;;;;;;;0.82;0.82;;;3.20;99.90;;;;;;5054298;28;20656;-64
2020/12/07 00:44:53;;;;;;;0.40;0.40;;;3.20;99.90;;;;;;5049570;28;20299;-64
2020/12/07 00:47:19;;;;;;;0.30;0.30;;;3.20;99.90;;;;;;5034810;28;20536;-63
2020/12/07 00:49:44;;;;;;;0.37;0.37;;;3.20;99.90;;;;;;5033278;28;20169;-63
2020/12/07 00:52:10;;;;;;;0.50;0.50;;;3.30;99.90;;;;;;5035192;28;20202;-64
2020/12/07 00:54:37;;;;;;;0.30;0.30;;;3.30;99.90;;;;;;5035128;28;20200;-63
2020/12/07 00:57:04;;;;;;;0.40;0.40;;;3.30;99.90;;;;;;5054087;28;20181;-64
2020/12/07 00:59:30;;;;;;;0.30;0.30;;;3.30;99.90;;;;;;5054044;28;20211;-63
2020/12/07 01:01:56;;;;;;;0.40;0.40;;;3.30;99.90;;;;;;5052818;28;20193;-63
2020/12/07 01:04:23;;;;;;;0.30;0.30;;;3.40;99.90;;;;;;5054077;28;20585;-63
2020/12/07 01:06:49;;;;;;;1.40;1.30;;;3.40;99.90;;;;;;5035702;28;20560;-64
2020/12/07 01:09:15;;;;;;;0.40;0.40;;;3.40;99.90;;;;;;5035028;28;20187;-63
2020/12/07 01:11:42;;;;;;;0.43;0.43;;;3.50;99.90;;;;;;5033563;28;20915;-62
2020/12/07 01:14:09;;;;;;;0.30;0.30;;;3.50;99.90;;;;;;5046538;28;20197;-63
2020/12/07 01:16:36;;;;;;;0.40;0.40;;;3.50;99.90;;;;;;5054114;28;20170;-63
2020/12/07 01:19:04;;;;;;;0.40;0.40;;;3.60;99.90;;;;;;5042284;28;20221;-64
2020/12/07 01:21:33;;;;;;;0.30;0.30;;;3.50;99.90;;;;;;5033413;28;20193;-63
2020/12/07 01:24:00;;;;;;;0.32;0.32;;;3.50;99.90;;;;;;5044085;28;20689;-64
2020/12/07 01:26:26;;;;;;;0.40;0.40;;;3.50;99.90;;;;;;5053942;28;20219;-64
2020/12/07 01:28:53;;;;;;;0.30;0.30;;;3.50;99.90;;;;;;5044562;28;20177;-64
2020/12/07 01:31:18;;;;;;;0.30;0.30;;;3.50;99.90;;;;;;5033735;28;20569;-64
2020/12/07 01:33:45;;;;;;;0.30;0.30;;;3.50;99.90;;;;;;5033789;28;20180;-63
2020/12/07 01:36:11;;;;;;;0.35;0.35;;;3.50;99.90;;;;;;5038714;28;20181;-63
2020/12/07 01:38:37;;;;;;;0.40;0.40;;;3.50;99.90;;;;;;5053317;28;20647;-62
2020/12/07 01:41:03;;;;;;;0.40;0.40;;;3.50;99.90;;;;;;5040613;28;20178;-64
2020/12/07 01:43:28;;;;;;;0.40;0.40;;;3.50;99.90;;;;;;5033663;28;20171;-63
2020/12/07 01:45:55;;;;;;;0.30;0.30;;;3.50;99.90;;;;;;5043608;28;20181;-64
2020/12/07 01:48:20;;;;;;;0.30;0.30;;;3.50;99.90;;;;;;5050210;28;20654;-63
2020/12/07 01:50:46;;;;;;;0.30;0.30;;;3.50;99.90;;;;;;5033038;28;20162;-64
2020/12/07 01:53:12;;;;;;;0.30;0.30;;;3.40;99.90;;;;;;5033933;28;20197;-63
2020/12/07 01:55:40;;;;;;;0.50;0.50;;;3.50;99.90;;;;;;5052883;28;20177;-64
2020/12/07 01:58:06;;;;;;;0.30;0.30;;;3.50;99.90;;;;;;5053110;28;20193;-63
2020/12/07 02:00:32;;;;;;;0.30;0.30;;;3.50;99.90;;;;;;5033062;28;20240;-63
2020/12/07 02:02:57;;;;;;;0.30;0.30;;;3.50;99.90;;;;;;5039478;28;20525;-64
2020/12/07 02:05:23;;;;;;;0.30;0.30;;;3.50;99.90;;;;;;5045396;28;20182;-64
2020/12/07 02:07:50;;;;;;;0.30;0.30;;;3.50;99.90;;;;;;5037920;28;20429;-63
2020/12/07 02:10:16;;;;;;;0.32;0.32;;;3.50;99.90;;;;;;5052939;28;20529;-63
2020/12/07 02:12:42;;;;;;;0.40;0.40;;;3.50;99.90;;;;;;5049466;28;20194;-64
2020/12/07 02:15:07;;;;;;;0.40;0.40;;;3.60;99.90;;;;;;5033323;28;20185;-64
2020/12/07 02:17:33;;;;;;;0.37;0.37;;;3.60;99.90;;;;;;5034589;28;20174;-63
2020/12/07 02:19:59;;;;;;;0.40;0.40;;;3.60;99.90;;;;;;5037194;28;20656;-61
2020/12/07 02:22:24;;;;;;;0.30;0.30;;;3.60;99.90;;;;;;5033201;28;20908;-63
2020/12/07 02:24:50;;;;;;;0.30;0.30;;;3.60;99.90;;;;;;5052482;28;20185;-62
2020/12/07 02:27:16;;;;;;;0.30;0.30;;;3.50;99.90;;;;;;5051469;28;20805;-63
2020/12/07 02:29:41;;;;;;;0.30;0.30;;;3.50;99.90;;;;;;5052696;28;20173;-63
2020/12/07 02:32:15;;;;;;;0.40;0.40;;;3.50;99.90;;;;;;5051228;28;20646;-63
2020/12/07 02:34:42;;;;;;;0.30;0.30;;;3.40;99.90;;;;;;5053030;28;20513;-64
2020/12/07 02:37:08;;;;;;;0.55;0.55;;;3.40;99.90;;;;;;5038172;28;20224;-64
2020/12/07 02:39:34;;;;;;;0.30;0.30;;;3.30;99.90;;;;;;5032857;28;20202;-64
2020/12/07 02:42:02;;;;;;;0.30;0.30;;;3.30;99.90;;;;;;5045415;28;20543;-64
2020/12/07 02:44:27;;;;;;;0.30;0.30;;;3.40;99.90;;;;;;5043573;28;20181;-64
2020/12/07 02:46:53;;;;;;;0.30;0.30;;;3.30;99.90;;;;;;5036890;28;20228;-64
2020/12/07 02:49:19;;;;;;;0.30;0.30;;;3.40;99.90;;;;;;5036508;28;20186;-64
2020/12/07 02:51:44;;;;;;;0.40;0.40;;;3.40;99.90;;;;;;5045612;28;20193;-63
2020/12/07 02:54:11;;;;;;;0.30;0.30;;;3.40;99.90;;;;;;5053172;28;20190;-65
2020/12/07 02:56:37;;;;;;;0.30;0.30;;;3.40;99.90;;;;;;5036745;28;20583;-63
2020/12/07 02:59:03;;;;;;;0.30;0.30;;;3.40;99.90;;;;;;5036658;28;20194;-64
2020/12/07 03:01:28;;;;;;;0.30;0.30;;;3.40;99.90;;;;;;5041822;28;20686;-63
2020/12/07 03:03:54;;;;;;;0.30;0.30;;;3.40;99.90;;;;;;5056432;28;20300;-63
2020/12/07 03:06:20;;;;;;;0.30;0.30;;;3.40;99.90;;;;;;5051650;28;20174;-63
2020/12/07 03:08:45;;;;;;;0.30;0.30;;;3.40;99.90;;;;;;5036192;28;20583;-63
2020/12/07 03:11:11;;;;;;;0.30;0.30;;;3.50;99.90;;;;;;5038495;28;20316;-62
2020/12/07 03:13:36;;;;;;;0.30;0.30;;;3.50;99.90;;;;;;5055897;28;20255;-63
2020/12/07 03:16:02;;;;;;;1.00;1.00;;;3.50;99.90;;;;;;5054695;28;20201;-63
2020/12/07 03:18:28;;;;;;;0.30;0.30;;;3.50;99.90;;;;;;5036650;28;20186;-63
2020/12/07 03:20:53;;;;;;;0.40;0.40;;;3.40;99.90;;;;;;5035642;28;20193;-63
2020/12/07 03:23:19;;;;;;;0.30;0.30;;;3.40;99.90;;;;;;5057879;28;20223;-63
2020/12/07 03:25:45;;;;;;;0.40;0.40;;;3.40;99.90;;;;;;5056868;28;20501;-63
2020/12/07 03:28:10;;;;;;;0.30;0.30;;;3.40;99.90;;;;;;5038213;28;20684;-63
2020/12/07 03:30:36;;;;;;;0.30;0.30;;;3.40;99.90;;;;;;5035641;28;20572;-63
2020/12/07 03:33:02;;;;;;;0.40;0.40;;;3.40;99.90;;;;;;5051198;28;20207;-63
2020/12/07 03:35:27;;;;;;;0.40;0.40;;;3.40;99.90;;;;;;5055931;28;20280;-63
2020/12/07 03:37:53;;;;;;;0.60;0.60;;;3.40;99.90;;;;;;5041319;28;20692;-63
2020/12/07 03:40:19;;;;;;;0.30;0.30;;;3.40;99.90;;;;;;5034962;28;20525;-63
2020/12/07 03:42:44;;;;;;;0.30;0.30;;;3.40;99.90;;;;;;5047602;28;20197;-63
2020/12/07 03:45:10;;;;;;;0.40;0.40;;;3.40;99.90;;;;;;5055738;28;20181;-64
2020/12/07 03:47:35;;;;;;;0.30;0.30;;;3.50;99.90;;;;;;5054569;28;20173;-63
2020/12/07 03:50:01;;;;;;;0.30;0.30;;;3.50;99.90;;;;;;5055117;28;20311;-63
2020/12/07 03:52:27;;;;;;;0.40;0.40;;;3.50;99.90;;;;;;5053456;28;20205;-63
2020/12/07 03:54:52;;;;;;;0.30;0.30;;;3.50;99.90;;;;;;5054911;28;20177;-63
2020/12/07 03:57:18;;;;;;;0.47;0.47;;;3.50;99.90;;;;;;5043857;28;20261;-63
2020/12/07 03:59:44;;;;;;;0.47;0.47;;;3.50;99.90;;;;;;5035086;28;20292;-63
2020/12/07 04:02:09;;;;;;;0.30;0.30;;;3.60;99.90;;;;;;5043931;28;20220;-63
2020/12/07 04:07:26;;;;;;;0.40;0.40;;;3.60;99.90;;;;;;5035337;28;20181;-62
2020/12/07 04:09:52;;;;;;;0.30;0.30;;;3.60;99.90;;;;;;5034536;28;20182;-63
2020/12/07 04:12:18;;;;;;;0.37;0.37;;;3.60;99.90;;;;;;5044144;28;20205;-62
2020/12/07 04:14:43;;;;;;;0.30;0.30;;;3.60;99.90;;;;;;5055161;28;20205;-64
2020/12/07 04:17:09;;;;;;;0.30;0.30;;;3.60;99.90;;;;;;5047014;28;20236;-64
2020/12/07 04:19:35;;;;;;;0.30;0.30;;;3.60;99.90;;;;;;5035135;28;20301;-64
2020/12/07 04:22:00;;;;;;;0.30;0.30;;;3.60;99.90;;;;;;5040180;28;20560;-63
2020/12/07 04:24:26;;;;;;;0.43;0.43;;;3.70;99.90;;;;;;5054073;28;20165;-64
2020/12/07 04:26:51;;;;;;;0.30;0.30;;;3.60;99.90;;;;;;5050445;28;20178;-64
2020/12/07 04:29:17;;;;;;;0.40;0.40;;;3.60;99.90;;;;;;5034737;28;20209;-64
2020/12/07 04:31:43;;;;;;;0.40;0.40;;;3.70;99.90;;;;;;5036517;28;20213;-65
2020/12/07 04:34:08;;;;;;;0.30;0.30;;;3.70;99.90;;;;;;5054861;28;20621;-64
2020/12/07 04:36:34;;;;;;;0.30;0.30;;;3.80;99.90;;;;;;5054112;28;20200;-64
2020/12/07 04:38:59;;;;;;;0.30;0.30;;;3.80;99.90;;;;;;5034385;28;20675;-62
2020/12/07 04:41:25;;;;;;;0.40;0.40;;;3.80;99.90;;;;;;5034148;28;20548;-63
2020/12/07 04:43:52;;;;;;;0.30;0.30;;;3.80;99.90;;;;;;5052958;28;20177;-64
2020/12/07 04:46:17;;;;;;;0.30;0.30;;;3.80;99.90;;;;;;5054833;28;20226;-64
2020/12/07 04:48:45;;;;;;;0.30;0.30;;;3.80;99.90;;;;;;5036679;28;20274;-64
2020/12/07 04:51:12;;;;;;;0.30;0.30;;;3.90;99.90;;;;;;5033993;28;20209;-64
2020/12/07 04:53:40;;;;;;;0.30;0.30;;;3.90;99.90;;;;;;5044329;28;20190;-64
2020/12/07 04:56:06;;;;;;;0.30;0.30;;;3.90;99.90;;;;;;5034433;28;20171;-63
2020/12/07 04:58:33;;;;;;;0.40;0.40;;;3.90;99.90;;;;;;5048435;28;20276;-64
2020/12/07 05:01:00;;;;;;;0.30;0.30;;;3.90;99.90;;;;;;5053514;28;20458;-64
2020/12/07 05:03:25;;;;;;;0.30;0.30;;;3.90;99.90;;;;;;5040537;28;20177;-63
2020/12/07 05:05:52;;;;;;;0.30;0.30;;;3.90;99.90;;;;;;5033330;28;20176;-63
2020/12/07 05:08:18;;;;;;;0.32;0.32;;;3.90;99.90;;;;;;5045398;28;20253;-63
2020/12/07 05:10:45;;;;;;;0.30;0.30;;;3.90;99.90;;;;;;5053114;28;20604;-63
2020/12/07 05:13:35;;;;;;;0.30;0.30;;;3.90;99.90;;;;;;5039391;28;20182;-63
2020/12/07 05:16:00;;;;;;;0.30;0.30;;;3.90;99.90;;;;;;5033853;28;20186;-63
2020/12/07 05:18:26;;;;;;;0.30;0.30;;;3.90;99.90;;;;;;5049513;28;20586;-63
2020/12/07 05:20:52;;;;;;;0.30;0.30;;;3.90;99.90;;;;;;5053509;28;20968;-63
2020/12/07 05:23:18;;;;;;;0.40;0.40;;;3.90;99.90;;;;;;5038994;28;20182;-64
2020/12/07 05:25:47;;;;;;;0.30;0.30;;;3.90;99.90;;;;;;5013993;28;20166;-64
2020/12/07 05:28:20;;;;;;;0.30;0.30;;;3.80;99.90;;;;;;5039897;28;20652;-64
2020/12/07 05:30:50;;;;;;;0.40;0.40;;;3.80;99.90;;;;;;5053272;28;20154;-64
2020/12/07 05:33:18;;;;;;;0.30;0.30;;;3.90;99.90;;;;;;5040561;28;20189;-64
2020/12/07 05:35:53;;;;;;;0.30;0.30;;;3.80;99.90;;;;;;5033525;28;20195;-63
2020/12/07 05:38:19;;;;;;;0.30;0.30;;;3.80;99.90;;;;;;5046255;28;20584;-64
2020/12/07 05:40:45;;;;;;;0.40;0.40;;;3.80;99.90;;;;;;5053294;28;20217;-63
2020/12/07 05:43:12;;;;;;;0.30;0.30;;;3.70;99.90;;;;;;5042194;28;20965;-63
2020/12/07 05:45:41;;;;;;;0.32;0.32;;;3.70;99.90;;;;;;5034927;28;20405;-63
2020/12/07 05:48:09;;;;;;;0.30;0.30;;;3.70;99.90;;;;;;5052240;28;20162;-63
2020/12/07 05:50:41;;;;;;;0.30;0.30;;;3.70;99.90;;;;;;5033024;28;20170;-63
2020/12/07 05:53:07;;;;;;;0.30;0.30;;;3.60;99.90;;;;;;5033241;28;20245;-63
2020/12/07 05:55:34;;;;;;;0.30;0.30;;;3.60;99.90;;;;;;5033369;28;20170;-63
2020/12/07 05:58:03;;;;;;;0.30;0.30;;;3.60;99.90;;;;;;5053213;28;20631;-63
2020/12/07 06:00:31;;;;;;;0.30;0.30;;;3.60;99.90;;;;;;5052933;28;20651;-64
2020/12/07 06:02:58;;;;;;;0.40;0.40;;;3.60;99.90;;;;;;5052646;28;20529;-63
2020/12/07 06:05:24;;;;;;;0.30;0.30;;;3.60;99.90;;;;;;5053060;28;20165;-64
2020/12/07 06:08:09;;;;;;;0.30;0.30;;;3.60;99.90;;;;;;5035384;28;20185;-63
2020/12/07 06:10:42;;;;;;;0.30;0.30;;;3.70;99.90;;;;;;5033656;28;20416;-63
2020/12/07 06:13:13;;;;;;;0.40;0.40;;;3.70;99.90;;;;;;5034249;28;20602;-63
2020/12/07 06:15:47;;;;;;;0.30;0.30;;;3.60;99.90;;;;;;5021761;28;20261;-62
2020/12/07 06:18:27;;;;;;;0.40;0.40;;;3.60;99.90;;;;;;5036392;28;20182;-63
2020/12/07 06:21:01;;;;;;;0.38;0.38;;;3.60;99.90;;;;;;5037175;28;20197;-63
2020/12/07 06:23:37;;;;;;;0.30;0.30;;;3.70;99.90;;;;;;5038346;28;20166;-63
2020/12/07 06:26:05;;;;;;;0.30;0.30;;;3.70;99.90;;;;;;5047228;28;20657;-63
2020/12/07 06:28:39;;;;;;;0.30;0.30;;;3.70;99.90;;;;;;5057824;28;20178;-63
2020/12/07 06:31:18;;;;;;;0.30;0.30;;;3.70;99.90;;;;;;5048296;28;20174;-63
2020/12/07 06:33:46;;;;;;;0.40;0.40;;;3.60;99.90;;;;;;5037276;28;20203;-63
2020/12/07 06:36:32;;;;;;;0.30;0.30;;;3.70;99.90;;;;;;5045787;28;20173;-63
2020/12/07 06:39:07;;;;;;;0.30;0.30;;;3.70;99.90;;;;;;5056594;28;20197;-63
2020/12/07 06:41:38;;;;;;;0.40;0.40;;;3.70;99.90;;;;;;5044790;28;20532;-64
2020/12/07 06:44:12;;;;;;;0.55;0.55;;;3.70;99.90;;;;;;5036385;28;20665;-64
2020/12/07 06:49:32;;;;;;;0.30;0.30;;;3.80;99.90;;;;;;5044274;28;20193;-64
2020/12/07 06:52:06;;;;;;;0.68;0.68;;;3.80;99.90;;;;;;5036402;28;20285;-66
2020/12/07 06:57:22;;;;;;;0.30;0.30;;;3.80;99.90;;;;;;5052944;28;20249;-64
2020/12/07 07:00:02;;;;;;;0.30;0.30;;;3.90;99.90;;;;;;5056178;28;20285;-63
2020/12/07 07:02:30;;;;;;;0.30;0.30;;;4.00;99.90;;;;;;5054694;28;20527;-64
2020/12/07 07:04:58;;;;;;;0.30;0.20;;;3.90;99.90;;;;;;5056428;28;20182;-64
2020/12/07 07:07:26;;;;;;;0.30;0.30;;;4.00;99.90;;;;;;5040032;28;20189;-63
2020/12/07 07:09:52;;;;;;;0.38;0.38;;;4.00;99.90;;;;;;5016293;28;20178;-63
2020/12/07 07:12:18;;;;;;;0.57;0.57;;;4.10;99.90;;;;;;5045497;28;20201;-63
2020/12/07 07:14:47;;;;;;;0.38;0.38;;;4.20;99.90;;;;;;5055641;28;20201;-63
2020/12/07 07:17:12;;;;;;;0.47;0.47;;;4.10;99.90;;;;;;5036527;28;20189;-63
2020/12/07 07:19:38;;;;;;;0.30;0.30;;;4.20;99.90;;;;;;5035440;28;20198;-64
2020/12/07 07:22:04;;;;;;;0.30;0.30;;;4.10;99.90;;;;;;5035916;28;20213;-66
2020/12/07 07:24:39;;;;;;;0.30;0.30;;;4.10;99.90;;;;;;5035841;28;20178;-65
2020/12/07 07:27:58;;;;;;;0.30;0.30;;;4.20;99.90;;;;;;5036250;28;20165;-66
2020/12/07 07:29:51;;;;;;;0.30;0.30;;;4.30;99.90;;;;;;5034393;28;20186;-65
2020/12/07 07:32:17;;;;;;;0.30;0.20;;;4.50;99.90;;;;;;5035764;28;20244;-65
2020/12/07 07:34:44;;;;;;;0.30;0.30;;;4.70;99.90;;;;;;5035731;28;20218;-64
2020/12/07 07:37:10;;;;;;;0.30;0.30;;;5.00;99.90;;;;;;5035762;28;20401;-63
2020/12/07 07:39:36;;;;;;;0.40;0.40;;;5.10;99.90;;;;;;5035735;28;20206;-67
2020/12/07 07:42:13;;;;;;;0.30;0.30;;;5.10;99.90;;;;;;5035558;28;20273;-67
2020/12/07 07:44:41;;;;;;;0.30;0.30;;;5.00;99.90;;;;;;5035175;28;20239;-66
2020/12/07 07:47:12;;;;;;;0.40;0.40;;;5.00;99.90;;;;;;5035755;28;20219;-67
2020/12/07 08:17:14;;;;;;;1.05;0.88;;;5.50;99.90;;;;;;5035159;28;20541;-66
2020/12/07 08:19:39;;;;;;;0.63;0.63;;;6.20;99.90;;;;;;5034832;28;20188;-65
2020/12/07 08:22:13;;;;;;;0.30;0.20;;;7.00;99.90;;;;;;5035221;28;20468;-66
2020/12/07 08:24:57;;;;;;;0.30;0.30;;;7.50;99.90;;;;;;5035833;28;20404;-64
2020/12/07 08:27:33;;;;;;;0.30;0.30;;;7.70;99.90;;;;;;5034946;28;20170;-67
2020/12/07 08:30:06;;;;;;;0.30;0.30;;;7.60;99.90;;;;;;5034574;28;20176;-66
2020/12/07 08:32:32;;;;;;;0.82;0.82;;;7.60;99.90;;;;;;5034781;28;20196;-70
2020/12/07 08:34:59;;;;;;;0.30;0.30;;;7.40;99.90;;;;;;5034661;28;20182;-65
2020/12/07 08:37:25;;;;;;;0.30;0.20;;;7.30;99.90;;;;;;5034930;28;20183;-66
2020/12/07 08:39:52;;;;;;;0.30;0.30;;;7.30;99.90;;;;;;5034446;28;20297;-67
2020/12/07 08:42:21;;;;;;;0.50;0.50;;;7.50;99.90;;;;;;5034614;28;20216;-68
2020/12/07 08:44:47;;;;;;;0.68;0.68;;;7.70;99.90;;;;;;5034013;28;20296;-67
2020/12/07 08:47:14;;;;;;;0.30;0.20;;;8.10;99.90;;;;;;5034548;28;20533;-69
2020/12/07 08:49:39;;;;;;;0.30;0.20;;;8.80;99.90;;;;;;5034303;28;20166;-68
2020/12/07 08:52:05;;;;;;;0.37;0.37;;;9.70;99.90;;;;;;5034081;28;20264;-68
2020/12/07 08:54:32;;;;;;;0.30;0.20;;;10.40;99.90;;;;;;5034280;28;20257;-68
2020/12/07 08:56:58;;;;;;;0.40;0.40;;;11.00;99.90;;;;;;5034459;28;20185;-69
2020/12/07 08:59:23;;;;;;;0.40;0.40;;;11.50;99.90;;;;;;5033914;28;20431;-67
2020/12/07 09:01:49;;;;;;;0.30;0.20;;;12.10;99.90;;;;;;5033934;28;20185;-70
2020/12/07 09:04:15;;;;;;;0.30;0.30;;;12.60;99.90;;;;;;5034182;28;20170;-70
2020/12/07 09:06:40;;;;;;;0.30;0.30;;;13.00;99.90;;;;;;5034154;28;20582;-69
2020/12/07 09:09:07;;;;;;;0.30;0.20;;;13.20;99.80;;;;;;5034298;28;20184;-68
2020/12/07 09:11:34;;;;;;;0.33;0.27;;;13.40;99.90;;;;;;5033677;28;20196;-69
2020/12/07 09:14:00;;;;;;;0.30;0.30;;;13.40;97.90;;;;;;5034246;28;20425;-69
2020/12/07 09:16:26;;;;;;;0.30;0.30;;;13.00;97.10;;;;;;5034135;28;20407;-67
2020/12/07 09:18:51;;;;;;;0.30;0.20;;;12.20;97.70;;;;;;5033883;28;20514;-69
2020/12/07 09:21:18;;;;;;;0.37;0.37;;;11.60;98.70;;;;;;5033307;28;20214;-68
2020/12/07 09:23:43;;;;;;;0.40;0.40;;;11.20;99.90;;;;;;5033834;28;20525;-69
2020/12/07 09:26:09;;;;;;;0.30;0.30;;;11.00;99.60;;;;;;5033309;28;20462;-65
2020/12/07 09:28:36;;;;;;;0.40;0.40;;;10.70;99.90;;;;;;5032824;28;20180;-68
2020/12/07 09:31:03;;;;;;;0.30;0.30;;;10.70;99.90;;;;;;5031354;28;20498;-67
2020/12/07 09:33:28;;;;;;;0.30;0.30;;;11.20;99.90;;;;;;5032817;28;20420;-66
2020/12/07 09:35:54;;;;;;;0.30;0.30;;;11.80;99.90;;;;;;5033112;28;20405;-67
2020/12/07 09:38:20;;;;;;;0.40;0.40;;;12.30;98.50;;;;;;5033139;28;20211;-66
2020/12/07 09:40:45;;;;;;;0.30;0.20;;;12.80;99.10;;;;;;5031764;28;20254;-67
2020/12/07 09:43:12;;;;;;;0.30;0.20;;;13.30;97.30;;;;;;5033107;28;20172;-68
2020/12/07 09:45:37;;;;;;;0.30;0.30;;;13.60;97.20;;;;;;5033146;28;20173;-67
2020/12/07 09:48:03;;;;;;;0.30;0.30;;;13.90;97.10;;;;;;5033352;28;20749;-67
2020/12/07 09:50:29;;;;;;;0.30;0.20;;;14.30;96.60;;;;;;5033165;28;20182;-67
2020/12/07 09:52:55;;;;;;;0.30;0.20;;;14.60;95.80;;;;;;5032552;28;20456;-67
2020/12/07 09:55:23;;;;;;;0.30;0.20;;;14.80;96.80;;;;;;5033156;28;20648;-69
2020/12/07 09:57:49;;;;;;;0.53;0.53;;;15.10;95.40;;;;;;5032751;28;20517;-66
2020/12/07 10:00:14;;;;;;;0.30;0.30;;;15.20;93.30;;;;;;5032699;28;20507;-67
2020/12/07 10:02:40;;;;;;;0.30;0.30;;;15.10;93.30;;;;;;5032344;28;20447;-68
2020/12/07 10:05:06;;;;;;;0.30;0.20;;;14.90;93.70;;;;;;5033308;28;20179;-68
2020/12/07 10:07:32;;;;;;;0.30;0.20;;;14.90;94.50;;;;;;5033355;28;20178;-68
2020/12/07 10:09:58;;;;;;;0.60;0.60;;;14.70;92.60;;;;;;5032566;28;20448;-66
2020/12/07 10:12:24;;;;;;;1.17;1.03;;;14.60;94.50;;;;;;5033087;28;20499;-68
2020/12/07 10:14:49;;;;;;;0.30;0.20;;;14.70;95.40;;;;;;5032588;28;20178;-68
2020/12/07 10:17:15;;;;;;;0.30;0.20;;;14.60;92.90;;;;;;5032700;28;20424;-67
2020/12/07 10:19:41;;;;;;;0.50;0.40;;;14.50;93.50;;;;;;5031765;28;20174;-67
2020/12/07 10:22:07;;;;;;;0.60;0.60;;;14.50;95.30;;;;;;5032483;28;20245;-70
2020/12/07 10:24:33;;;;;;;0.30;0.30;;;14.70;94.10;;;;;;5032898;28;20182;-70
2020/12/07 10:26:59;;;;;;;0.30;0.30;;;14.80;93.80;;;;;;5033169;28;20438;-70
2020/12/07 10:29:25;;;;;;;0.30;0.20;;;14.60;92.70;;;;;;5033125;28;20541;-68
2020/12/07 10:31:51;;;;;;;0.30;0.30;;;14.40;93.60;;;;;;5031621;28;20559;-67
2020/12/07 10:34:17;;;;;;;0.30;0.20;;;14.20;93.60;;;;;;5033097;28;20430;-65
2020/12/07 10:36:46;;;;;;;0.30;0.30;;;14.00;93.90;;;;;;5032931;28;20925;-66
2020/12/07 10:39:12;;;;;;;0.30;0.30;;;13.70;93.50;;;;;;5032345;28;20557;-65
2020/12/07 10:41:38;;;;;;;0.60;0.60;;;13.50;94.80;;;;;;5032456;28;20428;-64
2020/12/07 10:44:04;;;;;;;0.30;0.30;;;13.40;94.20;;;;;;5032415;28;20784;-63
2020/12/07 10:46:29;;;;;;;0.30;0.30;;;13.00;94.00;;;;;;5033210;28;20228;-63
2020/12/07 10:48:55;;;;;;;0.30;0.30;;;12.60;94.60;;;;;;5031292;28;20562;-66
2020/12/07 10:51:21;;;;;;;0.87;0.87;;;12.40;95.10;;;;;;5032378;28;20572;-64
2020/12/07 10:53:47;;;;;;;0.40;0.40;;;12.20;95.10;;;;;;5032158;28;20233;-65
2020/12/07 10:56:15;;;;;;;0.30;0.30;;;11.90;95.30;;;;;;5032816;28;20416;-65
2020/12/07 10:58:42;;;;;;;0.30;0.30;;;11.70;95.40;;;;;;5032850;28;20196;-64
2020/12/07 11:01:08;;;;;;;0.40;0.40;;;11.40;96.40;;;;;;5032466;28;20474;-65
2020/12/07 11:03:34;;;;;;;0.30;0.30;;;11.10;95.80;;;;;;5034025;28;20469;-66
2020/12/07 11:06:04;;;;;;;0.30;0.30;;;10.70;96.60;;;;;;5036566;28;20880;-66
2020/12/07 11:08:38;;;;;;;0.30;0.30;;;10.20;97.00;;;;;;5036301;28;20179;-65
2020/12/07 11:11:07;;;;;;;0.40;0.40;;;9.80;98.60;;;;;;5035284;28;20169;-66
2020/12/07 11:13:33;;;;;;;0.30;0.20;;;9.40;99.10;;;;;;5036109;28;20174;-65
2020/12/07 11:16:04;;;;;;;0.40;0.40;;;9.10;99.70;;;;;;5036522;28;20178;-65
2020/12/07 11:18:30;;;;;;;0.30;0.30;;;8.70;99.90;;;;;;5036255;28;20183;-67
2020/12/07 11:20:57;;;;;;;0.47;0.47;;;8.30;99.90;;;;;;5035834;28;20188;-67
2020/12/07 11:23:23;;;;;;;0.30;0.30;;;8.10;99.90;;;;;;5035634;28;20190;-66
2020/12/07 11:25:49;;;;;;;0.30;0.30;;;7.90;99.90;;;;;;5035955;28;20180;-64
2020/12/07 11:28:15;;;;;;;0.30;0.30;;;7.80;99.90;;;;;;5035744;28;20226;-63
2020/12/07 11:30:41;;;;;;;0.30;0.30;;;7.60;99.90;;;;;;5035320;28;20244;-65
2020/12/07 11:33:06;;;;;;;0.30;0.30;;;7.60;99.90;;;;;;5035404;28;20522;-64
2020/12/07 11:35:33;;;;;;;0.30;0.30;;;7.60;99.90;;;;;;5035916;28;20201;-63
2020/12/07 11:38:14;;;;;;;0.63;0.63;;;7.70;99.90;;;;;;5033612;28;20941;-64
2020/12/07 11:43:18;;;;;;;0.30;0.30;;;7.90;99.90;;;;;;5035147;28;20203;-64
2020/12/07 11:45:44;;;;;;;0.30;0.30;;;7.80;99.90;;;;;;5033450;28;20170;-64
2020/12/07 11:48:10;;;;;;;0.30;0.30;;;7.70;99.90;;;;;;5035919;28;20181;-63
2020/12/07 11:50:36;;;;;;;0.30;0.30;;;7.70;99.90;;;;;;5035183;28;20707;-64
2020/12/07 11:53:02;;;;;;;0.30;0.30;;;7.60;99.90;;;;;;5034839;28;20220;-65
2020/12/07 11:55:29;;;;;;;0.40;0.40;;;7.50;99.90;;;;;;5035514;28;20181;-64
2020/12/07 11:57:54;;;;;;;0.30;0.30;;;7.40;99.90;;;;;;5035489;28;20179;-65
2020/12/07 12:00:20;;;;;;;0.30;0.30;;;7.40;99.90;;;;;;5035094;28;20253;-64
2020/12/07 12:02:46;;;;;;;0.30;0.20;;;7.30;99.90;;;;;;5035634;28;20192;-65
2020/12/07 12:05:11;;;;;;;0.30;0.30;;;7.30;99.90;;;;;;5035426;28;20176;-65
2020/12/07 12:07:37;;;;;;;0.30;0.30;;;7.20;99.90;;;;;;5035014;28;20175;-65
2020/12/07 12:10:03;;;;;;;0.40;0.40;;;7.20;99.90;;;;;;5034792;28;20207;-65
2020/12/07 12:12:28;;;;;;;0.40;0.40;;;7.30;99.90;;;;;;5035238;28;20191;-63
2020/12/07 12:14:54;;;;;;;0.30;0.30;;;7.30;99.90;;;;;;5034827;28;20455;-64
2020/12/07 12:17:20;;;;;;;0.30;0.30;;;7.30;99.90;;;;;;5035061;28;20177;-65
2020/12/07 12:19:45;;;;;;;0.30;0.30;;;7.40;99.90;;;;;;5034783;28;20175;-63
2020/12/07 12:22:12;;;;;;;0.37;0.37;;;7.50;99.90;;;;;;5034433;28;20197;-64
2020/12/07 12:24:37;;;;;;;0.60;0.60;;;7.60;99.90;;;;;;5034752;28;20190;-63
2020/12/07 12:27:03;;;;;;;0.30;0.30;;;7.80;99.90;;;;;;5033724;28;20208;-63
2020/12/07 12:29:28;;;;;;;0.30;0.30;;;7.90;99.90;;;;;;5034872;28;20621;-63
2020/12/07 12:31:54;;;;;;;0.97;0.67;;;8.00;99.90;;;;;;5034109;28;20550;-65
2020/12/07 12:34:20;;;;;;;0.30;0.30;;;8.00;99.90;;;;;;5034669;28;20552;-65
2020/12/07 12:36:48;;;;;;;1.03;1.03;;;8.00;99.90;;;;;;5034618;28;20173;-65
2020/12/07 12:39:14;;;;;;;0.30;0.30;;;8.00;99.90;;;;;;5034486;28;20651;-64
2020/12/07 12:41:39;;;;;;;0.68;0.68;;;7.80;99.90;;;;;;5034150;28;20608;-66
2020/12/07 12:44:08;;;;;;;0.30;0.30;;;7.70;99.90;;;;;;5034620;28;20299;-66
2020/12/07 12:46:35;;;;;;;0.30;0.30;;;7.70;99.90;;;;;;5034507;28;20181;-66
2020/12/07 12:49:00;;;;;;;0.93;0.93;;;7.70;99.90;;;;;;5033094;28;20210;-66
2020/12/07 12:51:26;;;;;;;0.30;0.30;;;7.70;99.90;;;;;;5034029;28;20203;-64
2020/12/07 12:53:51;;;;;;;0.77;0.63;;;7.70;99.90;;;;;;5034105;28;20220;-66
2020/12/07 12:56:17;;;;;;;0.30;0.30;;;7.70;99.90;;;;;;5034386;28;20176;-65
2020/12/07 12:58:43;;;;;;;0.30;0.30;;;7.80;99.90;;;;;;5034345;28;20640;-65
2020/12/07 13:01:08;;;;;;;0.30;0.30;;;7.80;99.90;;;;;;5033668;28;20186;-64
2020/12/07 13:03:34;;;;;;;0.30;0.30;;;7.80;99.90;;;;;;5034096;28;20203;-65
2020/12/07 13:06:00;;;;;;;0.37;0.37;;;7.80;99.90;;;;;;5034071;28;20175;-65
2020/12/07 13:08:26;;;;;;;0.30;0.30;;;7.80;99.90;;;;;;5034379;28;20876;-65
2020/12/07 13:10:51;;;;;;;0.30;0.30;;;7.90;99.90;;;;;;5033730;28;20201;-64
2020/12/07 13:13:18;;;;;;;0.30;0.30;;;7.90;99.90;;;;;;5034115;28;20176;-66
2020/12/07 13:15:52;;;;;;;0.30;0.30;;;7.80;99.90;;;;;;5034099;28;20643;-65
2020/12/07 13:18:18;;;;;;;0.30;0.30;;;7.70;99.90;;;;;;5033839;28;20169;-67
2020/12/07 13:20:56;;;;;;;0.30;0.30;;;7.70;99.90;;;;;;5032531;28;20702;-66
2020/12/07 13:26:15;;;;;;;0.30;0.30;;;7.50;99.90;;;;;;5033205;28;20179;-65
2020/12/07 13:28:41;;;;;;;0.30;0.30;;;7.40;99.90;;;;;;5033029;28;20269;-66
2020/12/07 13:31:07;;;;;;;0.30;0.30;;;7.30;99.90;;;;;;5033259;28;20601;-66
2020/12/07 13:33:39;;;;;;;0.30;0.30;;;7.20;99.90;;;;;;5033195;28;20449;-66
2020/12/07 13:36:09;;;;;;;0.30;0.30;;;7.20;99.90;;;;;;5033867;28;20175;-65